Time;durP1;ratioP1;P1;durP2;ratioP2;P2;SDS_P1;SDS_P2;PMS_P1;PMS_P2;Temp;Humidity;BMP_temperature;BMP_pressure;BME280_temperature;BME280_humidity;BME280_pressure;Samples;Min_cycle;Max_cycle;Signal;HPM_P1;HPM_P2
2022/04/19 04:14:55;;;;;;;8.10;6.22;;;;;;;3.97;72.26;99948.41;5564426;32;164458;-87
2022/04/19 04:17:58;;;;;;;10.13;6.53;;;;;;;3.94;72.17;99951.12;5550019;32;34328;-87
2022/04/19 04:21:01;;;;;;;9.10;6.22;;;;;;;3.97;71.99;99954.50;5545899;32;33482;-87
2022/04/19 04:24:04;;;;;;;11.05;6.15;;;;;;;4.06;71.95;99948.13;5549580;32;33757;-88
2022/04/19 04:27:09;;;;;;;9.30;6.40;;;;;;;4.08;71.94;99954.22;5556107;32;32593;-88
2022/04/19 04:30:13;;;;;;;6.82;5.70;;;;;;;4.17;71.66;99953.06;5548191;32;34375;-87
2022/04/19 04:33:19;;;;;;;8.48;6.00;;;;;;;4.25;71.26;99955.47;5544970;32;34153;-87
2022/04/19 04:36:26;;;;;;;7.05;5.78;;;;;;;4.22;70.29;99956.41;5544583;32;33914;-87
2022/04/19 04:39:29;;;;;;;8.25;5.95;;;;;;;4.35;70.07;99962.16;5543931;32;36073;-87
2022/04/19 04:42:33;;;;;;;8.27;6.00;;;;;;;4.38;69.95;99954.16;5545614;32;33062;-87
2022/04/19 04:45:38;;;;;;;8.57;6.10;;;;;;;4.25;69.81;99961.59;5544523;32;32546;-87
2022/04/19 04:52:04;;;;;;;;;;;;;;;4.38;69.55;99958.59;5546301;32;33952;-87
2022/04/19 04:55:08;;;;;;;8.07;5.97;;;;;;;4.48;69.00;99962.63;5544348;32;32942;-87
2022/04/19 04:58:10;;;;;;;8.35;5.97;;;;;;;4.63;68.92;99958.66;5545013;32;33850;-87
2022/04/19 05:01:13;;;;;;;9.45;6.10;;;;;;;4.65;67.67;99962.13;5543233;32;32767;-88
2022/04/19 05:04:16;;;;;;;10.10;6.28;;;;;;;4.81;67.47;99958.97;5544700;32;33617;-86
2022/04/19 05:07:20;;;;;;;8.95;6.00;;;;;;;4.89;66.26;99964.00;5544824;32;34874;-87
2022/04/19 05:10:29;;;;;;;9.88;6.28;;;;;;;4.79;65.98;99960.81;5542470;32;32503;-91
2022/04/19 05:13:32;;;;;;;8.82;5.87;;;;;;;4.98;65.62;99955.81;5543742;32;34030;-91
2022/04/19 05:16:38;;;;;;;8.20;6.30;;;;;;;5.13;64.70;99962.31;5542591;32;32775;-90
2022/04/19 05:19:41;;;;;;;9.63;6.07;;;;;;;5.16;63.60;99956.09;5545125;32;33770;-87
2022/04/19 05:22:45;;;;;;;12.85;6.65;;;;;;;5.28;64.14;99958.28;5542381;32;33336;-87
2022/04/19 05:25:48;;;;;;;11.23;6.43;;;;;;;5.32;63.01;99954.66;5533392;32;34118;-86
2022/04/19 05:28:51;;;;;;;10.73;6.93;;;;;;;5.40;62.46;99957.88;5531162;32;33725;-87
2022/04/19 05:31:54;;;;;;;11.25;6.55;;;;;;;5.56;62.02;99953.84;5517625;32;33269;-87
2022/04/19 05:34:56;;;;;;;8.40;6.37;;;;;;;5.67;61.49;99959.56;5533064;32;32581;-87
2022/04/19 05:38:00;;;;;;;11.48;6.78;;;;;;;5.68;61.48;99963.09;5531734;32;35183;-87
2022/04/19 05:41:03;;;;;;;8.43;6.50;;;;;;;5.97;60.09;99954.09;5530471;32;33818;-88
2022/04/19 05:44:07;;;;;;;6.82;5.97;;;;;;;6.14;59.51;99957.91;5532260;32;34562;-85
2022/04/19 05:47:10;;;;;;;9.98;6.37;;;;;;;6.61;57.25;99956.97;5535762;32;34125;-85
2022/04/19 05:50:14;;;;;;;7.53;5.90;;;;;;;6.67;56.91;99964.66;5534702;32;32307;-85
2022/04/19 05:53:17;;;;;;;7.80;5.60;;;;;;;6.81;56.04;99964.09;5535280;32;33432;-84
2022/04/19 05:56:20;;;;;;;7.68;5.95;;;;;;;6.55;56.75;99968.59;5534531;32;32295;-85
2022/04/19 05:59:24;;;;;;;8.00;5.93;;;;;;;6.56;55.96;99967.72;5537214;32;34574;-84
2022/04/19 06:05:49;;;;;;;10.07;6.32;;;;;;;6.79;55.00;99970.34;5537446;32;33021;-85
2022/04/19 06:08:53;;;;;;;9.30;6.10;;;;;;;6.80;54.63;99961.50;5541242;32;34256;-86
2022/04/19 06:11:56;;;;;;;7.62;5.37;;;;;;;6.88;54.27;99964.69;5540143;32;33225;-86
2022/04/19 06:14:59;;;;;;;7.68;5.65;;;;;;;6.92;54.48;99968.91;5537245;32;33988;-86
2022/04/19 06:18:03;;;;;;;8.63;6.68;;;;;;;7.13;54.08;99969.81;5534172;32;35219;-86
2022/04/19 06:21:08;;;;;;;10.63;5.87;;;;;;;7.24;53.32;99965.88;5533267;32;32441;-86
2022/04/19 06:24:10;;;;;;;7.68;5.87;;;;;;;7.14;54.00;99966.25;5536675;32;34040;-85
2022/04/19 06:27:13;;;;;;;13.70;6.05;;;;;;;7.27;54.48;99961.31;5533493;32;32425;-86
2022/04/19 06:30:16;;;;;;;8.55;6.18;;;;;;;7.26;54.24;99959.56;5531812;32;32503;-86
2022/04/19 06:33:19;;;;;;;9.52;6.93;;;;;;;7.06;54.73;99957.81;5534659;32;34463;-86
2022/04/19 06:36:22;;;;;;;9.32;6.28;;;;;;;7.11;55.18;99961.09;5534081;32;32714;-86
2022/04/19 06:39:25;;;;;;;8.43;6.37;;;;;;;7.17;54.33;99959.12;5541462;32;32452;-86
2022/04/19 06:42:29;;;;;;;7.07;6.00;;;;;;;7.24;53.61;99966.72;5546880;32;34222;-86
2022/04/19 06:45:54;;;;;;;7.22;5.60;;;;;;;7.32;53.41;99958.47;5544805;32;34093;-86
2022/04/19 06:48:59;;;;;;;7.37;6.18;;;;;;;7.47;52.29;99951.69;5541439;32;35075;-85
2022/04/19 06:52:06;;;;;;;9.82;6.12;;;;;;;7.58;52.63;99959.12;5541671;32;35097;-85
2022/04/19 06:55:09;;;;;;;6.50;5.50;;;;;;;8.63;49.81;99961.41;5540929;32;34244;-91
2022/04/19 06:58:12;;;;;;;6.43;5.45;;;;;;;8.77;48.52;99951.94;5556777;32;33933;-91
2022/04/19 07:01:15;;;;;;;7.78;5.85;;;;;;;9.21;47.81;99952.44;5556166;32;34248;-90
2022/04/19 07:04:21;;;;;;;6.00;5.32;;;;;;;10.05;45.37;99950.75;5540463;32;32043;-87
2022/04/19 07:07:25;;;;;;;7.35;5.60;;;;;;;11.17;42.37;99955.13;5543629;32;35367;-87
2022/04/19 07:10:27;;;;;;;6.80;5.57;;;;;;;11.69;42.11;99945.81;5560740;32;34134;-87
2022/04/19 07:13:32;;;;;;;5.82;5.28;;;;;;;12.60;39.95;99948.19;5547947;32;32491;-86
2022/04/19 07:16:35;;;;;;;9.35;5.97;;;;;;;12.73;38.28;99940.25;5560974;32;34813;-86
2022/04/19 07:29:43;;;;;;;8.57;6.35;;;;;;;12.69;38.91;99939.59;5555348;32;35094;-85
2022/04/19 07:32:47;;;;;;;9.80;5.80;;;;;;;12.51;39.32;99937.19;5542992;32;33418;-86
2022/04/19 07:35:52;;;;;;;10.02;5.70;;;;;;;13.14;37.44;99941.97;5555928;32;34684;-85
2022/04/19 07:38:57;;;;;;;7.50;5.28;;;;;;;13.68;36.46;99934.78;5542601;32;32542;-86
2022/04/19 07:42:00;;;;;;;7.80;6.00;;;;;;;13.17;37.49;99935.56;5558570;32;35038;-86
2022/04/19 07:45:04;;;;;;;10.00;5.57;;;;;;;14.11;36.22;99928.22;5542229;32;32868;-87
2022/04/19 07:48:08;;;;;;;5.95;5.25;;;;;;;14.32;35.04;99927.63;5556339;32;33928;-86
2022/04/19 07:51:13;;;;;;;6.07;5.47;;;;;;;14.22;35.01;99938.13;5541759;32;32481;-87
2022/04/19 07:54:17;;;;;;;6.78;5.50;;;;;;;14.64;34.01;99928.91;5556582;32;33922;-85
2022/04/19 07:57:21;;;;;;;9.05;5.82;;;;;;;14.22;34.71;99931.91;5556053;32;34151;-85
2022/04/19 08:00:27;;;;;;;8.00;6.12;;;;;;;13.90;35.72;99930.63;5530167;32;33402;-86
2022/04/19 08:03:30;;;;;;;8.20;5.97;;;;;;;13.13;37.45;99931.41;5539845;32;32775;-87
2022/04/19 08:06:33;;;;;;;7.10;5.72;;;;;;;15.19;34.14;99931.09;5558655;32;33789;-84
2022/04/19 08:09:37;;;;;;;8.00;5.62;;;;;;;15.28;36.66;99930.38;5542047;32;32727;-86
2022/04/19 08:12:43;;;;;;;9.77;5.57;;;;;;;13.98;34.97;99924.75;5540439;32;32533;-85
2022/04/19 08:15:46;;;;;;;6.12;5.35;;;;;;;15.32;32.97;99926.50;5541346;32;34228;-85
2022/04/19 08:18:49;;;;;;;6.32;5.20;;;;;;;15.93;32.51;99932.53;5540561;32;32701;-89
2022/04/19 08:21:52;;;;;;;10.40;5.18;;;;;;;14.39;33.75;99928.88;5542620;32;32607;-89
2022/04/19 08:24:55;;;;;;;7.87;5.22;;;;;;;14.63;33.39;99927.22;5554031;32;34457;-90
2022/04/19 08:27:59;;;;;;;5.85;5.07;;;;;;;14.99;32.57;99922.75;5542866;32;32868;-86
2022/04/19 08:31:02;;;;;;;7.75;5.60;;;;;;;13.99;34.76;99929.94;5543936;32;33119;-87
2022/04/19 08:34:06;;;;;;;6.30;5.20;;;;;;;13.34;35.65;99926.44;5541646;32;33428;-87
2022/04/19 08:37:14;;;;;;;6.68;5.95;;;;;;;13.73;34.89;99926.47;5545527;32;32797;-86
2022/04/19 08:40:19;;;;;;;5.35;4.85;;;;;;;14.48;34.04;99930.03;5550852;32;34743;-85
2022/04/19 08:43:22;;;;;;;5.85;5.30;;;;;;;15.49;32.24;99921.69;5540689;32;34668;-85
2022/04/19 08:46:27;;;;;;;7.40;5.37;;;;;;;15.71;31.85;99918.16;5539357;32;35157;-84
2022/04/19 08:49:31;;;;;;;6.28;5.45;;;;;;;14.44;33.53;99919.69;5539364;32;33801;-85
2022/04/19 08:52:34;;;;;;;5.68;5.07;;;;;;;13.67;34.35;99917.09;5538998;32;34573;-85
2022/04/19 08:59:03;;;;;;;7.15;5.72;;;;;;;13.02;36.01;99910.84;5538733;32;35237;-85
2022/04/19 09:02:07;;;;;;;6.10;5.50;;;;;;;12.91;36.88;99908.87;5540406;32;34161;-85
2022/04/19 09:05:19;;;;;;;6.35;5.75;;;;;;;13.63;35.78;99901.44;5526702;32;32286;-85
2022/04/19 09:08:22;;;;;;;7.10;5.50;;;;;;;13.55;34.57;99899.28;5526544;32;33408;-85
2022/04/19 09:11:33;;;;;;;5.97;5.43;;;;;;;13.11;36.01;99904.88;5538703;32;34636;-86
2022/04/19 09:14:56;;;;;;;7.65;6.03;;;;;;;12.90;36.89;99901.87;5525800;32;32252;-86
2022/04/19 09:18:00;;;;;;;5.95;5.35;;;;;;;13.43;35.05;99892.97;5542007;32;32511;-86
2022/04/19 09:21:04;;;;;;;7.18;4.93;;;;;;;13.42;35.45;99901.94;5538112;32;33681;-85
2022/04/19 09:24:19;;;;;;;7.12;4.95;;;;;;;14.39;34.05;99896.84;5520785;32;33036;-85
2022/04/19 09:27:32;;;;;;;7.28;4.90;;;;;;;14.25;34.57;99895.22;5537822;32;34149;-86
2022/04/19 09:30:35;;;;;;;8.13;4.70;;;;;;;14.42;33.89;99893.13;5537331;32;34780;-89
2022/04/19 09:33:44;;;;;;;5.85;4.60;;;;;;;14.49;34.71;99897.03;5538026;32;32680;-89
2022/04/19 09:36:53;;;;;;;9.45;5.12;;;;;;;14.54;35.18;99891.38;5566163;32;34202;-86
2022/04/19 09:39:55;;;;;;;5.93;4.95;;;;;;;15.39;32.81;99899.31;5550060;32;34170;-85
2022/04/19 09:43:16;;;;;;;6.40;5.07;;;;;;;14.39;33.93;99898.69;5561299;32;34027;-85
2022/04/19 09:46:19;;;;;;;;;;;;;;;13.73;34.49;99897.16;5559987;32;33981;-85
2022/04/19 09:49:49;;;;;;;6.05;5.43;;;;;;;13.60;35.56;99891.81;5559833;32;34823;-86
2022/04/19 09:52:52;;;;;;;5.75;5.07;;;;;;;13.85;34.79;99893.63;5558951;32;34304;-85
2022/04/19 09:55:58;;;;;;;6.47;5.10;;;;;;;14.50;33.45;99895.22;5544276;32;32787;-85
2022/04/19 09:59:02;;;;;;;5.65;4.80;;;;;;;13.94;34.35;99889.41;5544905;32;32433;-85
2022/04/19 10:08:50;;;;;;;5.70;5.20;;;;;;;13.83;33.56;99884.84;5522760;32;33258;-85
2022/04/19 10:11:54;;;;;;;5.85;5.20;;;;;;;14.07;33.25;99884.06;5542627;32;33876;-85
2022/04/19 10:14:57;;;;;;;6.90;4.90;;;;;;;15.22;31.49;99883.62;5511067;32;32690;-85
2022/04/19 10:18:00;;;;;;;6.10;5.50;;;;;;;14.66;32.52;99882.44;5510900;32;34156;-85
2022/04/19 10:21:10;;;;;;;8.35;5.30;;;;;;;13.04;34.76;99883.12;5513349;32;33296;-86
2022/04/19 10:24:17;;;;;;;6.95;5.15;;;;;;;12.96;34.99;99881.97;5509525;32;32284;-85
2022/04/19 10:27:29;;;;;;;6.30;5.15;;;;;;;13.65;34.29;99875.50;5517669;32;32644;-89
2022/04/19 10:30:33;;;;;;;7.20;5.32;;;;;;;14.70;33.83;99864.37;5533253;32;33436;-89
2022/04/19 10:33:51;;;;;;;5.70;5.20;;;;;;;15.38;31.69;99860.19;5547014;32;36693;-86
2022/04/19 10:36:57;;;;;;;5.55;5.05;;;;;;;15.16;31.90;99865.38;5532958;32;33723;-86
2022/04/19 10:40:00;;;;;;;7.43;5.60;;;;;;;14.60;32.09;99861.56;5546881;32;35252;-86
2022/04/19 10:43:13;;;;;;;5.60;5.10;;;;;;;14.50;32.95;99852.53;5546666;32;34444;-86
2022/04/19 10:46:18;;;;;;;6.43;4.93;;;;;;;17.64;29.32;99853.28;5546673;32;34203;-85
2022/04/19 10:49:24;;;;;;;5.30;4.80;;;;;;;18.31;27.63;99856.31;5527444;32;33649;-84
2022/04/19 10:52:39;;;;;;;8.57;5.37;;;;;;;17.35;29.45;99845.97;5541660;32;33818;-84
2022/04/19 10:56:02;;;;;;;7.90;5.50;;;;;;;16.44;30.53;99858.00;5523330;32;34658;-85
2022/04/19 10:59:23;;;;;;;22.58;6.30;;;;;;;14.79;33.66;99857.53;5513483;32;33423;-86
2022/04/19 11:02:35;;;;;;;8.52;5.50;;;;;;;14.30;33.58;99857.53;5527009;32;34076;-85
2022/04/19 11:05:45;;;;;;;6.00;5.50;;;;;;;13.37;34.71;99862.28;5525639;32;35096;-86
2022/04/19 11:09:05;;;;;;;6.68;5.40;;;;;;;12.77;35.77;99860.09;5532361;32;35121;-86
2022/04/19 11:12:10;;;;;;;7.07;5.95;;;;;;;12.45;36.49;99864.91;5538376;32;34393;-86
2022/04/19 11:15:14;;;;;;;11.68;6.03;;;;;;;12.64;36.90;99867.22;5542008;32;32890;-89
2022/04/19 11:18:34;;;;;;;7.28;6.32;;;;;;;12.93;37.03;99859.91;5550594;32;34250;-88
2022/04/19 11:21:56;;;;;;;7.62;5.65;;;;;;;12.68;37.26;99868.72;5557302;32;34206;-86
2022/04/19 11:24:59;;;;;;;6.22;5.53;;;;;;;12.07;38.52;99866.47;5543085;32;35032;-85
2022/04/19 11:28:02;;;;;;;6.95;6.25;;;;;;;11.57;39.86;99872.19;5557141;32;33995;-86
2022/04/19 11:31:04;;;;;;;7.90;6.12;;;;;;;11.16;39.45;99871.97;5545590;32;32231;-86
2022/04/19 11:34:14;;;;;;;7.05;5.70;;;;;;;11.18;38.40;99875.38;5560766;32;34337;-85
2022/04/19 11:37:17;;;;;;;9.88;6.37;;;;;;;11.04;38.75;99880.66;5541965;32;34154;-85
2022/04/19 11:47:05;;;;;;;8.63;6.45;;;;;;;10.83;42.11;99899.56;5552191;32;34001;-86
2022/04/19 11:50:31;;;;;;;10.30;6.95;;;;;;;10.65;42.77;99893.53;5550297;32;33933;-86
2022/04/19 11:53:39;;;;;;;7.75;6.55;;;;;;;10.19;45.77;99896.97;5550619;32;34613;-86
2022/04/19 11:56:41;;;;;;;8.30;6.30;;;;;;;10.22;44.64;99895.00;5551608;32;33633;-86
2022/04/19 11:59:44;;;;;;;8.23;6.72;;;;;;;10.31;45.44;99903.38;5550970;32;35412;-87
2022/04/19 12:02:50;;;;;;;10.98;6.93;;;;;;;10.11;46.36;99900.91;5551715;32;34242;-86
2022/04/19 12:06:04;;;;;;;9.35;7.00;;;;;;;10.19;45.65;99905.78;5553962;32;34096;-85
2022/04/19 12:09:12;;;;;;;8.05;7.25;;;;;;;10.10;46.20;99903.63;5551688;32;33967;-91
2022/04/19 12:12:15;;;;;;;7.90;6.65;;;;;;;9.88;46.76;99894.22;5536541;32;32695;-87
2022/04/19 12:15:41;;;;;;;9.35;7.40;;;;;;;9.94;46.33;99899.19;5545514;32;33233;-87
2022/04/19 12:18:51;;;;;;;8.73;7.57;;;;;;;9.67;48.71;99897.06;5531850;32;32799;-87
2022/04/19 12:21:54;;;;;;;10.17;8.07;;;;;;;9.33;49.82;99906.81;5547320;32;33900;-86
2022/04/19 12:25:00;;;;;;;8.45;7.47;;;;;;;9.33;51.82;99909.47;5553340;32;34890;-87
2022/04/19 12:28:09;;;;;;;9.57;8.02;;;;;;;9.33;52.72;99911.25;5559680;32;33832;-86
2022/04/19 12:31:39;;;;;;;9.77;8.30;;;;;;;9.51;52.90;99914.75;5536314;32;32597;-86
2022/04/19 12:34:42;;;;;;;10.20;8.23;;;;;;;9.01;55.13;99914.63;5531404;32;33853;-86
2022/04/19 12:38:04;;;;;;;9.52;8.43;;;;;;;8.51;59.79;99914.41;5538409;32;32708;-86
2022/04/19 12:41:15;;;;;;;10.40;8.57;;;;;;;8.33;59.80;99909.06;5553973;32;33690;-87
2022/04/19 12:44:19;;;;;;;11.12;8.90;;;;;;;8.02;63.57;99920.22;5553099;32;34223;-86
2022/04/19 12:47:25;;;;;;;11.23;9.82;;;;;;;8.23;64.86;99926.28;5550461;32;34967;-87
2022/04/19 12:50:28;;;;;;;11.20;9.68;;;;;;;8.20;68.73;99924.63;5542761;32;32741;-85
2022/04/19 12:53:36;;;;;;;11.27;9.63;;;;;;;8.18;69.61;99936.19;5556625;32;33842;-86
2022/04/19 12:56:39;;;;;;;14.43;9.40;;;;;;;7.93;70.75;99939.97;5543946;32;33657;-86
2022/04/19 12:59:44;;;;;;;12.73;9.55;;;;;;;8.12;70.49;99931.19;5555445;32;34192;-87
2022/04/19 13:02:47;;;;;;;10.43;9.32;;;;;;;8.28;71.25;99926.91;5537653;32;33229;-91
2022/04/19 13:12:37;;;;;;;12.18;8.73;;;;;;;9.24;66.87;99909.94;5543835;32;33924;-85
2022/04/19 13:15:41;;;;;;;9.00;8.10;;;;;;;9.14;63.72;99909.56;5558300;32;35038;-85
2022/04/19 13:18:43;;;;;;;11.02;9.00;;;;;;;8.90;63.03;99912.50;5559424;32;34002;-86
2022/04/19 13:21:47;;;;;;;10.35;9.07;;;;;;;9.03;63.22;99910.97;5562151;32;34139;-85
2022/04/19 13:24:50;;;;;;;11.00;9.35;;;;;;;9.33;63.09;99909.47;5544635;32;32779;-86
2022/04/19 13:27:53;;;;;;;10.90;8.95;;;;;;;9.24;63.43;99908.16;5557419;32;34256;-86
2022/04/19 13:30:55;;;;;;;10.38;8.93;;;;;;;9.48;63.00;99915.75;5543862;32;32430;-86
2022/04/19 13:33:58;;;;;;;10.05;8.70;;;;;;;9.80;58.59;99914.97;5542857;32;32579;-86
2022/04/19 13:37:02;;;;;;;10.90;8.48;;;;;;;9.69;57.32;99907.59;5552708;32;34267;-87
2022/04/19 13:40:07;;;;;;;9.77;8.27;;;;;;;9.83;57.29;99909.50;5541168;32;32663;-87
2022/04/19 13:43:10;;;;;;;9.95;8.90;;;;;;;10.06;56.63;99910.91;5560591;32;34037;-88
2022/04/19 13:46:13;;;;;;;9.63;8.63;;;;;;;10.08;55.28;99913.47;5552486;32;33617;-87
2022/04/19 13:49:17;;;;;;;10.75;8.93;;;;;;;10.09;55.95;99907.22;5540105;32;32764;-87
2022/04/19 13:52:20;;;;;;;9.30;8.30;;;;;;;9.68;57.38;99904.09;5553842;32;34244;-86
2022/04/19 13:55:22;;;;;;;10.88;8.45;;;;;;;10.25;55.00;99896.63;5537952;32;33817;-87
2022/04/19 13:58:25;;;;;;;10.35;8.40;;;;;;;10.61;53.18;99903.47;5553655;32;34602;-87
2022/04/19 14:01:30;;;;;;;11.20;8.15;;;;;;;10.56;53.35;99908.16;5539898;32;32246;-87
2022/04/19 14:04:33;;;;;;;8.98;8.05;;;;;;;10.70;52.01;99894.13;5552787;32;33930;-87
2022/04/19 14:07:35;;;;;;;9.23;8.23;;;;;;;10.31;52.83;99900.72;5540461;32;32847;-86
2022/04/19 14:10:38;;;;;;;11.38;8.73;;;;;;;10.43;53.17;99905.38;5552895;32;33883;-87
2022/04/19 14:13:42;;;;;;;10.95;8.88;;;;;;;9.83;55.00;99904.22;5554881;32;33646;-86
2022/04/19 14:16:46;;;;;;;11.02;9.38;;;;;;;9.05;59.90;99916.16;5555148;32;34115;-86
2022/04/19 14:19:51;;;;;;;12.32;9.88;;;;;;;8.38;64.87;99929.09;5541295;32;34189;-87
2022/04/19 14:22:54;;;;;;;13.02;10.82;;;;;;;7.33;74.16;99944.34;5541055;32;33070;-87
2022/04/19 14:25:56;;;;;;;13.73;11.65;;;;;;;6.79;84.05;99938.72;5540575;32;34245;-87
2022/04/19 14:35:43;;;;;;;12.82;11.35;;;;;;;6.11;87.67;99951.00;5540288;32;33185;-88
2022/04/19 14:38:45;;;;;;;14.70;10.90;;;;;;;6.04;91.81;99947.72;5541262;32;32547;-88
2022/04/19 14:41:49;;;;;;;14.73;11.82;;;;;;;5.93;93.35;99944.59;5541379;32;32739;-88
2022/04/19 14:44:52;;;;;;;14.95;11.98;;;;;;;5.75;97.06;99951.41;5554567;32;34600;-87
2022/04/19 14:47:56;;;;;;;14.80;11.75;;;;;;;5.83;97.83;99956.41;5556917;32;34020;-87
2022/04/19 14:54:20;;;;;;;16.02;12.40;;;;;;;5.70;100.00;99953.34;5555809;32;34413;-87
2022/04/19 14:57:24;;;;;;;15.13;12.18;;;;;;;5.64;100.00;99959.69;5555280;32;34079;-87
2022/04/19 15:00:27;;;;;;;16.37;10.70;;;;;;;5.71;99.38;99958.56;5556528;32;34019;-87
2022/04/19 15:03:30;;;;;;;17.75;12.60;;;;;;;5.66;99.74;99964.00;5542657;32;33673;-87
2022/04/19 15:06:33;;;;;;;13.68;12.23;;;;;;;5.64;100.00;99965.81;5542544;32;32680;-87
2022/04/19 15:09:35;;;;;;;15.13;11.80;;;;;;;5.44;100.00;99961.28;5557046;32;34623;-86
2022/04/19 15:12:38;;;;;;;17.50;12.88;;;;;;;5.42;100.00;99964.88;5538983;32;34425;-87
2022/04/19 15:15:41;;;;;;;14.90;12.80;;;;;;;5.46;100.00;99972.59;5541426;32;32816;-87
2022/04/19 15:18:44;;;;;;;17.55;12.30;;;;;;;5.49;98.77;99969.00;5555467;32;34694;-87
2022/04/19 15:21:46;;;;;;;18.08;12.98;;;;;;;5.22;98.22;99976.91;5554882;32;33722;-87
2022/04/19 15:24:49;;;;;;;17.35;12.88;;;;;;;4.97;100.00;99983.00;5540772;32;32545;-87
2022/04/19 15:27:52;;;;;;;18.55;14.45;;;;;;;4.88;100.00;99993.81;5541871;32;32942;-87
2022/04/19 15:30:55;;;;;;;16.85;12.80;;;;;;;4.69;100.00;99992.63;5556195;32;34164;-87
